createdAt,value
2018-02-25T00:01:15.956Z,6.37
2018-02-25T00:03:44.091Z,8.80
2018-02-25T00:06:12.079Z,7.45
2018-02-25T00:08:40.136Z,8.05
2018-02-25T00:11:08.044Z,8.73
2018-02-25T00:13:36.060Z,9.02
2018-02-25T00:16:04.979Z,8.85
2018-02-25T00:18:33.061Z,8.07
2018-02-25T00:21:01.201Z,7.87
2018-02-25T00:23:29.419Z,8.15
2018-02-25T00:25:57.562Z,8.70
2018-02-25T00:28:25.759Z,8.15
2018-02-25T00:30:53.979Z,9.32
2018-02-25T00:33:22.145Z,7.37
2018-02-25T00:35:50.136Z,8.23
2018-02-25T00:38:18.685Z,7.50
2018-02-25T00:40:46.642Z,8.18
2018-02-25T00:43:14.722Z,7.82
2018-02-25T00:45:43.261Z,7.75
2018-02-25T00:48:11.403Z,7.97
2018-02-25T00:50:39.869Z,7.07
2018-02-25T00:53:08.167Z,7.03
2018-02-25T00:55:36.439Z,7.32
2018-02-25T00:58:05.042Z,8.60
2018-02-25T01:00:33.183Z,7.97
2018-02-25T01:03:01.318Z,7.15
2018-02-25T01:05:29.410Z,7.80
2018-02-25T01:07:58.029Z,7.62
2018-02-25T01:10:26.389Z,7.60
2018-02-25T01:12:54.930Z,8.00
2018-02-25T01:15:23.612Z,8.55
2018-02-25T01:17:51.741Z,7.90
2018-02-25T01:20:19.735Z,7.43
2018-02-25T01:22:47.860Z,6.47
2018-02-25T01:25:15.828Z,7.35
2018-02-25T01:27:44.098Z,6.35
2018-02-25T01:30:12.402Z,5.90
2018-02-25T01:32:40.680Z,6.00
2018-02-25T01:35:08.862Z,6.30
2018-02-25T01:37:37.083Z,6.47
2018-02-25T01:40:06.818Z,6.75
2018-02-25T01:42:35.416Z,5.90
2018-02-25T01:45:03.915Z,7.03
2018-02-25T01:47:31.997Z,6.25
2018-02-25T01:50:00.204Z,6.30
2018-02-25T01:52:28.297Z,6.62
2018-02-25T01:54:56.584Z,5.85
2018-02-25T01:57:24.716Z,7.62
2018-02-25T01:59:53.078Z,6.60
2018-02-25T02:02:21.119Z,7.07
2018-02-25T02:04:49.465Z,6.72
2018-02-25T02:07:17.758Z,7.10
2018-02-25T02:09:46.004Z,7.15
2018-02-25T02:12:14.140Z,6.37
2018-02-25T02:14:42.262Z,7.68
2018-02-25T02:17:10.304Z,6.70
2018-02-25T02:19:38.456Z,6.70
2018-02-25T02:22:06.598Z,6.12
2018-02-25T02:24:34.879Z,6.85
2018-02-25T02:27:03.244Z,6.68
2018-02-25T02:29:31.621Z,6.37
2018-02-25T02:32:00.121Z,5.50
2018-02-25T02:34:28.499Z,6.32
2018-02-25T02:36:56.817Z,5.82
2018-02-25T02:39:25.231Z,7.05
2018-02-25T02:41:53.523Z,6.55
2018-02-25T02:44:22.019Z,5.35
2018-02-25T02:46:50.501Z,5.90
2018-02-25T02:49:18.901Z,4.95
2018-02-25T02:51:47.423Z,5.15
2018-02-25T02:54:15.802Z,5.60
2018-02-25T02:56:44.107Z,6.10
2018-02-25T02:59:13.077Z,6.85
2018-02-25T03:01:41.407Z,6.25
2018-02-25T03:04:09.791Z,5.85
2018-02-25T03:06:38.222Z,4.60
2018-02-25T03:09:07.127Z,5.22
2018-02-25T03:11:35.420Z,5.37
2018-02-25T03:14:04.029Z,5.22
2018-02-25T03:16:32.526Z,5.75
2018-02-25T03:19:01.323Z,5.68
2018-02-25T03:21:29.736Z,4.93
2018-02-25T03:23:58.386Z,6.72
2018-02-25T03:26:26.737Z,5.10
2018-02-25T03:29:01.202Z,6.50
2018-02-25T03:31:29.885Z,6.20
2018-02-25T03:33:58.471Z,7.25
2018-02-25T03:36:26.876Z,5.45
2018-02-25T03:38:55.586Z,6.07
2018-02-25T03:41:23.976Z,6.07
2018-02-25T03:43:52.577Z,5.82
2018-02-25T03:46:21.108Z,4.60
2018-02-25T03:48:49.139Z,5.53
2018-02-25T03:51:17.261Z,5.35
2018-02-25T03:53:45.496Z,5.18
2018-02-25T03:56:14.642Z,4.80
2018-02-25T03:58:42.881Z,5.62
2018-02-25T04:01:11.198Z,5.30
2018-02-25T04:03:39.576Z,4.90
2018-02-25T04:06:07.715Z,5.43
2018-02-25T04:08:35.799Z,5.25
2018-02-25T04:11:04.161Z,6.30
2018-02-25T04:13:32.178Z,5.62
2018-02-25T04:16:00.537Z,5.90
2018-02-25T04:18:28.838Z,4.28
2018-02-25T04:20:56.899Z,6.30
2018-02-25T04:23:24.896Z,5.95
2018-02-25T04:25:53.206Z,5.35
2018-02-25T04:28:21.242Z,5.80
2018-02-25T04:30:49.538Z,5.03
2018-02-25T04:33:17.602Z,6.03
2018-02-25T04:35:45.692Z,5.35
2018-02-25T04:38:13.617Z,5.50
2018-02-25T04:40:41.906Z,5.28
2018-02-25T04:43:10.041Z,5.35
2018-02-25T04:45:38.230Z,5.15
2018-02-25T04:48:06.459Z,5.40
2018-02-25T04:50:34.791Z,5.75
2018-02-25T04:53:03.007Z,5.32
2018-02-25T04:55:31.249Z,5.47
2018-02-25T04:57:59.336Z,6.45
2018-02-25T05:00:27.466Z,6.03
2018-02-25T05:02:55.480Z,5.70
2018-02-25T05:05:23.762Z,7.00
2018-02-25T05:07:51.846Z,5.22
2018-02-25T05:10:20.220Z,4.93
2018-02-25T05:12:48.299Z,5.20
2018-02-25T05:15:16.701Z,5.55
2018-02-25T05:17:45.196Z,7.05
2018-02-25T05:20:13.367Z,6.65
2018-02-25T05:22:41.800Z,6.22
2018-02-25T05:25:09.955Z,5.07
2018-02-25T05:27:38.155Z,5.53
2018-02-25T05:30:06.759Z,5.55
2018-02-25T05:32:35.290Z,4.95
2018-02-25T05:37:39.146Z,6.03
2018-02-25T05:40:07.840Z,5.35
2018-02-25T05:42:36.999Z,5.18
2018-02-25T05:45:05.354Z,5.45
2018-02-25T05:47:33.497Z,6.07
2018-02-25T05:50:01.731Z,4.60
2018-02-25T05:52:29.838Z,6.37
2018-02-25T05:54:58.256Z,6.22
2018-02-25T05:57:26.336Z,6.47
2018-02-25T05:59:54.635Z,5.87
2018-02-25T06:02:22.605Z,9.15
2018-02-25T06:04:55.009Z,6.30
2018-02-25T06:07:23.316Z,6.90
2018-02-25T06:09:51.702Z,5.50
2018-02-25T06:12:19.997Z,4.82
2018-02-25T06:14:48.406Z,6.37
2018-02-25T06:17:16.541Z,6.53
2018-02-25T06:19:44.880Z,6.93
2018-02-25T06:22:18.498Z,6.43
2018-02-25T06:24:47.101Z,7.12
2018-02-25T06:27:15.611Z,8.38
2018-02-25T06:29:44.939Z,8.40
2018-02-25T06:32:13.934Z,8.70
2018-02-25T06:34:42.358Z,8.80
2018-02-25T06:37:10.737Z,9.75
2018-02-25T06:39:42.601Z,7.78
2018-02-25T06:42:12.136Z,7.87
2018-02-25T06:44:40.437Z,8.85
2018-02-25T06:47:08.817Z,7.57
2018-02-25T06:49:36.922Z,6.85
2018-02-25T06:52:05.242Z,7.10
2018-02-25T06:54:33.493Z,8.05
2018-02-25T06:57:01.637Z,7.53
2018-02-25T06:59:29.779Z,7.57
2018-02-25T07:01:57.939Z,10.23
2018-02-25T07:04:26.110Z,9.60
2018-02-25T07:06:54.373Z,8.88
2018-02-25T07:09:22.471Z,10.15
2018-02-25T07:11:50.695Z,9.93
2018-02-25T07:14:18.881Z,9.82
2018-02-25T07:16:47.176Z,9.80
2018-02-25T07:19:15.225Z,9.48
2018-02-25T07:21:43.446Z,9.18
2018-02-25T07:24:11.600Z,11.18
2018-02-25T07:26:39.816Z,9.40
2018-02-25T07:29:07.976Z,8.40
2018-02-25T07:31:36.273Z,10.00
2018-02-25T07:34:04.342Z,8.95
2018-02-25T07:36:32.610Z,10.13
2018-02-25T07:39:00.741Z,11.35
2018-02-25T07:41:28.988Z,11.88
2018-02-25T07:43:57.019Z,12.82
2018-02-25T07:46:25.180Z,11.60
2018-02-25T07:48:53.247Z,11.45
2018-02-25T07:51:21.448Z,13.05
2018-02-25T07:53:49.631Z,11.70
2018-02-25T07:56:17.756Z,11.70
2018-02-25T07:58:45.790Z,11.95
2018-02-25T08:01:14.039Z,12.48
2018-02-25T08:03:42.301Z,11.63
2018-02-25T08:06:10.435Z,11.45
2018-02-25T08:08:38.520Z,11.75
2018-02-25T08:11:06.573Z,11.63
2018-02-25T08:13:34.701Z,13.40
2018-02-25T08:16:02.798Z,12.63
2018-02-25T08:18:30.822Z,12.10
2018-02-25T08:20:59.119Z,12.37
2018-02-25T08:23:27.158Z,11.90
2018-02-25T08:25:55.376Z,11.52
2018-02-25T08:28:23.382Z,11.95
2018-02-25T08:30:51.578Z,11.90
2018-02-25T08:33:19.660Z,11.45
2018-02-25T08:35:47.846Z,11.93
2018-02-25T08:38:16.157Z,10.77
2018-02-25T08:40:44.996Z,10.68
2018-02-25T08:43:12.995Z,11.60
2018-02-25T08:45:41.021Z,12.75
2018-02-25T08:48:08.975Z,10.75
2018-02-25T08:50:37.922Z,12.73
2018-02-25T08:53:05.903Z,14.25
2018-02-25T08:55:33.869Z,15.57
2018-02-25T08:58:01.844Z,14.15
2018-02-25T09:00:29.880Z,15.05
2018-02-25T09:02:57.969Z,16.62
2018-02-25T09:05:25.963Z,14.00
2018-02-25T09:07:54.170Z,13.00
2018-02-25T09:10:22.303Z,12.68
2018-02-25T09:12:50.406Z,11.77
2018-02-25T09:15:18.871Z,11.30
2018-02-25T09:17:47.022Z,10.80
2018-02-25T09:20:15.085Z,9.35
2018-02-25T09:22:43.142Z,9.50
2018-02-25T09:25:11.312Z,9.60
2018-02-25T09:27:44.778Z,9.65
2018-02-25T09:30:16.410Z,9.27
2018-02-25T09:32:44.702Z,9.30
2018-02-25T09:35:12.683Z,8.80
2018-02-25T09:37:40.763Z,7.57
2018-02-25T09:40:08.754Z,7.40
2018-02-25T09:42:36.833Z,7.90
2018-02-25T09:45:04.831Z,7.40
2018-02-25T09:47:32.936Z,8.00
2018-02-25T09:50:00.935Z,8.25
2018-02-25T09:52:28.988Z,7.65
2018-02-25T09:54:56.979Z,8.13
2018-02-25T09:57:24.986Z,5.28
2018-02-25T09:59:53.204Z,7.78
2018-02-25T10:02:21.478Z,7.97
2018-02-25T10:04:49.502Z,7.15
2018-02-25T10:07:17.538Z,6.28
2018-02-25T10:09:45.578Z,7.87
2018-02-25T10:12:13.659Z,7.32
2018-02-25T10:14:41.598Z,6.70
2018-02-25T10:17:09.698Z,6.85
2018-02-25T10:19:37.678Z,7.95
2018-02-25T10:22:05.758Z,6.72
2018-02-25T10:24:33.798Z,5.80
2018-02-25T10:27:01.894Z,8.35
2018-02-25T10:29:29.878Z,7.85
2018-02-25T10:31:57.949Z,8.20
2018-02-25T10:34:25.890Z,7.10
2018-02-25T10:36:53.930Z,7.37
2018-02-25T10:39:21.890Z,6.93
2018-02-25T10:41:50.152Z,6.90
2018-02-25T10:44:19.098Z,6.95
2018-02-25T10:46:47.120Z,7.43
2018-02-25T10:49:15.118Z,7.55
2018-02-25T10:51:43.317Z,7.05
2018-02-25T10:54:11.257Z,6.80
2018-02-25T10:56:39.329Z,5.43
2018-02-25T10:59:07.328Z,6.15
2018-02-25T11:01:35.328Z,6.47
2018-02-25T11:04:03.329Z,7.00
2018-02-25T11:06:32.227Z,8.20
2018-02-25T11:09:00.364Z,7.28
2018-02-25T11:11:28.302Z,7.28
2018-02-25T11:13:56.619Z,6.15
2018-02-25T11:16:24.593Z,6.80
2018-02-25T11:18:52.618Z,7.35
2018-02-25T11:21:20.567Z,7.35
2018-02-25T11:23:48.675Z,7.03
2018-02-25T11:26:16.860Z,7.37
2018-02-25T11:28:44.943Z,6.50
2018-02-25T11:31:13.038Z,6.03
2018-02-25T11:33:41.224Z,7.40
2018-02-25T11:36:09.434Z,6.68
2018-02-25T11:38:37.506Z,6.28
2018-02-25T11:41:05.908Z,7.40
2018-02-25T11:43:34.018Z,6.40
2018-02-25T11:46:02.821Z,6.95
2018-02-25T11:48:30.846Z,7.28
2018-02-25T11:50:58.995Z,10.15
2018-02-25T11:53:27.138Z,8.70
2018-02-25T11:55:55.494Z,13.85
2018-02-25T11:58:23.576Z,14.38
2018-02-25T12:00:51.633Z,15.45
2018-02-25T12:03:19.714Z,11.75
2018-02-25T12:05:47.715Z,11.38
2018-02-25T12:08:15.852Z,9.40
2018-02-25T12:10:44.138Z,10.27
2018-02-25T12:13:12.370Z,9.40
2018-02-25T12:15:40.527Z,9.13
2018-02-25T12:18:08.626Z,11.55
2018-02-25T12:20:36.718Z,10.55
2018-02-25T12:23:04.903Z,8.20
2018-02-25T12:25:33.110Z,7.57
2018-02-25T12:28:01.420Z,7.82
2018-02-25T12:30:29.711Z,7.72
2018-02-25T12:32:58.248Z,7.57
2018-02-25T12:35:26.416Z,7.03
2018-02-25T12:37:55.209Z,8.15
2018-02-25T12:40:23.687Z,6.45
2018-02-25T12:42:52.821Z,7.20
2018-02-25T12:45:20.918Z,8.93
2018-02-25T12:47:49.095Z,7.72
2018-02-25T12:50:17.295Z,7.47
2018-02-25T12:52:45.503Z,6.50
2018-02-25T12:55:13.679Z,6.85
2018-02-25T12:57:41.879Z,6.32
2018-02-25T13:00:09.878Z,7.00
2018-02-25T13:02:38.062Z,6.22
2018-02-25T13:05:06.269Z,6.72
2018-02-25T13:07:34.497Z,5.87
2018-02-25T13:10:02.645Z,6.37
2018-02-25T13:12:30.936Z,8.18
2018-02-25T13:14:59.141Z,5.97
2018-02-25T13:17:27.437Z,6.07
2018-02-25T13:19:55.742Z,6.70
2018-02-25T13:22:23.925Z,6.05
2018-02-25T13:24:52.119Z,5.65
2018-02-25T13:27:20.217Z,7.00
2018-02-25T13:29:48.407Z,7.05
2018-02-25T13:32:16.696Z,5.80
2018-02-25T13:34:44.895Z,6.03
2018-02-25T13:37:13.096Z,6.28
2018-02-25T13:39:41.186Z,5.55
2018-02-25T13:42:09.167Z,6.03
2018-02-25T13:44:37.258Z,5.97
2018-02-25T13:47:05.363Z,7.40
2018-02-25T13:49:33.551Z,8.23
2018-02-25T13:52:01.854Z,6.20
2018-02-25T13:54:30.159Z,6.60
2018-02-25T13:56:58.439Z,6.32
2018-02-25T13:59:26.636Z,5.75
2018-02-25T14:01:54.934Z,7.22
2018-02-25T14:04:23.139Z,6.00
2018-02-25T14:06:51.221Z,7.15
2018-02-25T14:09:19.413Z,7.62
2018-02-25T14:11:47.608Z,6.55
2018-02-25T14:14:15.802Z,6.70
2018-02-25T14:16:43.994Z,7.82
2018-02-25T14:19:12.096Z,5.68
2018-02-25T14:21:40.176Z,6.03
2018-02-25T14:24:08.384Z,6.18
2018-02-25T14:26:36.375Z,6.95
2018-02-25T14:29:05.697Z,6.65
2018-02-25T14:31:33.974Z,6.30
2018-02-25T14:34:02.284Z,6.70
2018-02-25T14:36:30.786Z,5.80
2018-02-25T14:38:59.188Z,7.10
2018-02-25T14:41:27.588Z,6.55
2018-02-25T14:43:55.979Z,6.78
2018-02-25T14:46:24.078Z,7.68
2018-02-25T14:48:52.260Z,7.28
2018-02-25T14:51:20.458Z,7.60
2018-02-25T14:53:48.647Z,6.75
2018-02-25T14:56:16.752Z,7.15
2018-02-25T14:58:45.718Z,6.70
2018-02-25T15:01:13.963Z,6.95
2018-02-25T15:03:42.141Z,6.60
2018-02-25T15:06:10.238Z,6.57
2018-02-25T15:08:38.436Z,8.30
2018-02-25T15:11:06.721Z,6.65
2018-02-25T15:13:34.926Z,8.00
2018-02-25T15:16:03.128Z,7.07
2018-02-25T15:18:31.330Z,7.60
2018-02-25T15:20:59.507Z,6.78
2018-02-25T15:23:27.609Z,6.82
2018-02-25T15:25:55.686Z,6.95
2018-02-25T15:28:23.994Z,6.87
2018-02-25T15:30:52.089Z,7.12
2018-02-25T15:33:20.280Z,8.10
2018-02-25T15:35:48.484Z,6.55
2018-02-25T15:38:16.601Z,7.45
2018-02-25T15:40:44.868Z,7.70
2018-02-25T15:43:12.956Z,7.78
2018-02-25T15:45:41.135Z,7.60
2018-02-25T15:48:09.188Z,7.22
2018-02-25T15:50:37.296Z,8.13
2018-02-25T15:53:05.520Z,7.80
2018-02-25T15:55:33.720Z,7.32
2018-02-25T15:58:01.859Z,7.87
2018-02-25T16:00:30.102Z,7.05
2018-02-25T16:02:58.315Z,7.20
2018-02-25T16:05:26.504Z,7.28
2018-02-25T16:07:54.790Z,7.95
2018-02-25T16:10:22.979Z,8.27
2018-02-25T16:12:51.414Z,8.00
2018-02-25T16:15:21.959Z,8.80
2018-02-25T16:17:50.219Z,8.52
2018-02-25T16:20:18.425Z,8.30
2018-02-25T16:22:46.704Z,8.90
2018-02-25T16:25:15.285Z,8.90
2018-02-25T16:27:43.514Z,8.07
2018-02-25T16:30:12.151Z,9.45
2018-02-25T16:32:41.033Z,8.32
2018-02-25T16:35:09.227Z,9.50
2018-02-25T16:37:37.628Z,10.10
2018-02-25T16:40:06.124Z,10.13
2018-02-25T16:42:38.033Z,10.40
2018-02-25T16:45:06.679Z,10.30
2018-02-25T16:47:35.205Z,10.40
2018-02-25T16:50:04.443Z,10.40
2018-02-25T16:52:32.835Z,11.25
2018-02-25T16:55:01.166Z,9.75
2018-02-25T16:57:29.967Z,9.50
2018-02-25T16:59:58.939Z,9.32
2018-02-25T17:02:27.471Z,9.80
2018-02-25T17:04:56.340Z,9.00
2018-02-25T17:07:25.261Z,9.70
2018-02-25T17:09:54.439Z,9.98
2018-02-25T17:12:23.392Z,8.40
2018-02-25T17:14:52.107Z,7.43
2018-02-25T17:17:20.295Z,8.73
2018-02-25T17:19:48.596Z,8.80
2018-02-25T17:22:16.894Z,7.60
2018-02-25T17:24:44.980Z,9.05
2018-02-25T17:27:13.144Z,9.38
2018-02-25T17:29:41.476Z,9.23
2018-02-25T17:32:09.787Z,8.90
2018-02-25T17:34:38.066Z,7.85
2018-02-25T17:37:06.360Z,8.68
2018-02-25T17:39:34.620Z,8.15
2018-02-25T17:42:02.740Z,7.68
2018-02-25T17:44:31.039Z,8.65
2018-02-25T17:46:59.139Z,8.65
2018-02-25T17:49:27.340Z,8.60
2018-02-25T17:51:55.504Z,10.38
2018-02-25T17:54:23.738Z,10.88
2018-02-25T17:56:51.819Z,10.40
2018-02-25T17:59:19.826Z,9.77
2018-02-25T18:01:48.603Z,9.50
2018-02-25T18:04:16.729Z,9.68
2018-02-25T18:06:44.950Z,11.32
2018-02-25T18:09:12.887Z,11.00
2018-02-25T18:11:41.095Z,12.13
2018-02-25T18:14:09.154Z,11.68
2018-02-25T18:16:37.272Z,10.52
2018-02-25T18:19:05.453Z,15.13
2018-02-25T18:21:33.653Z,12.25
2018-02-25T18:24:01.857Z,13.35
2018-02-25T18:26:30.245Z,11.70
2018-02-25T18:28:58.547Z,16.45
2018-02-25T18:31:26.911Z,11.98
2018-02-25T18:33:55.236Z,16.33
2018-02-25T18:36:23.443Z,17.08
2018-02-25T18:38:51.533Z,16.30
2018-02-25T18:41:19.818Z,17.95
2018-02-25T18:43:47.999Z,17.77
2018-02-25T18:46:16.318Z,15.30
2018-02-25T18:48:44.377Z,12.02
2018-02-25T18:51:12.592Z,25.33
2018-02-25T18:53:40.792Z,26.23
2018-02-25T18:56:09.099Z,20.73
2018-02-25T18:58:37.278Z,27.73
2018-02-25T19:01:05.527Z,27.45
2018-02-25T19:03:33.627Z,18.55
2018-02-25T19:06:02.088Z,17.83
2018-02-25T19:11:13.907Z,17.20
2018-02-25T19:13:42.086Z,17.33
2018-02-25T19:16:10.276Z,17.73
2018-02-25T19:18:38.375Z,36.90
2018-02-25T19:21:08.124Z,19.92
2018-02-25T19:23:36.395Z,14.07
2018-02-25T19:26:04.674Z,10.68
2018-02-25T19:28:33.098Z,13.88
2018-02-25T19:31:01.795Z,11.43
2018-02-25T19:33:29.995Z,13.70
2018-02-25T19:35:58.254Z,13.18
2018-02-25T19:38:26.795Z,13.18
2018-02-25T19:40:55.096Z,13.55
2018-02-25T19:43:23.515Z,11.32
2018-02-25T19:45:52.094Z,12.37
2018-02-25T19:48:20.429Z,18.60
2018-02-25T19:50:49.195Z,14.05
2018-02-25T19:53:17.954Z,13.95
2018-02-25T19:55:46.514Z,16.23
2018-02-25T19:58:15.135Z,13.48
2018-02-25T20:00:43.365Z,13.00
2018-02-25T20:03:11.834Z,12.80
2018-02-25T20:05:40.295Z,13.00
2018-02-25T20:08:08.422Z,12.30
2018-02-25T20:10:37.856Z,10.95
2018-02-25T20:13:05.997Z,13.25
2018-02-25T20:15:34.216Z,11.05
2018-02-25T20:18:02.416Z,11.18
2018-02-25T20:20:30.715Z,11.43
2018-02-25T20:22:59.216Z,11.00
2018-02-25T20:25:27.415Z,11.85
2018-02-25T20:27:55.610Z,15.13
2018-02-25T20:30:23.811Z,13.75
2018-02-25T20:32:51.989Z,37.35
2018-02-25T20:35:22.024Z,15.05
2018-02-25T20:37:50.127Z,10.73
2018-02-25T20:40:18.304Z,12.37
2018-02-25T20:42:46.604Z,11.77
2018-02-25T20:45:14.703Z,13.60
2018-02-25T20:47:42.923Z,13.32
2018-02-25T20:50:11.003Z,22.85
2018-02-25T20:52:39.123Z,89.25
2018-02-25T20:55:07.203Z,121.82
2018-02-25T20:57:35.483Z,93.20
2018-02-25T21:00:03.864Z,39.25
2018-02-25T21:02:32.069Z,20.65
2018-02-25T21:05:00.163Z,17.90
2018-02-25T21:07:28.442Z,17.15
2018-02-25T21:09:56.742Z,20.00
2018-02-25T21:12:25.043Z,13.70
2018-02-25T21:14:53.064Z,13.70
2018-02-25T21:17:21.368Z,14.52
2018-02-25T21:19:49.423Z,14.20
2018-02-25T21:22:17.625Z,13.93
2018-02-25T21:24:45.823Z,13.75
2018-02-25T21:27:13.943Z,13.98
2018-02-25T21:29:42.003Z,12.95
2018-02-25T21:32:10.288Z,14.75
2018-02-25T21:34:38.542Z,12.10
2018-02-25T21:37:06.644Z,12.93
2018-02-25T21:39:34.783Z,13.30
2018-02-25T21:42:03.064Z,13.10
2018-02-25T21:44:31.362Z,13.73
2018-02-25T21:46:59.663Z,13.30
2018-02-25T21:49:27.857Z,16.23
2018-02-25T21:51:56.057Z,31.50
2018-02-25T21:54:24.107Z,22.58
2018-02-25T21:56:52.237Z,14.98
2018-02-25T21:59:20.298Z,13.98
2018-02-25T22:01:48.620Z,15.32
2018-02-25T22:04:16.831Z,13.95
2018-02-25T22:06:45.761Z,13.38
2018-02-25T22:09:14.122Z,12.63
2018-02-25T22:11:42.421Z,13.40
2018-02-25T22:14:12.786Z,17.62
2018-02-25T22:16:41.174Z,12.77
2018-02-25T22:19:09.465Z,11.95
2018-02-25T22:21:37.761Z,13.90
2018-02-25T22:24:06.460Z,16.55
2018-02-25T22:26:35.178Z,14.45
2018-02-25T22:29:03.264Z,13.70
2018-02-25T22:31:31.969Z,11.55
2018-02-25T22:34:01.289Z,13.15
2018-02-25T22:36:30.111Z,13.70
2018-02-25T22:38:59.047Z,16.37
2018-02-25T22:41:27.502Z,16.48
2018-02-25T22:43:55.600Z,16.60
2018-02-25T22:46:23.947Z,17.58
2018-02-25T22:48:51.944Z,15.63
2018-02-25T22:51:20.181Z,14.00
2018-02-25T22:53:48.368Z,12.35
2018-02-25T22:56:17.605Z,11.02
2018-02-25T22:58:45.987Z,11.68
2018-02-25T23:01:14.086Z,11.40
2018-02-25T23:03:42.384Z,10.52
2018-02-25T23:06:10.623Z,11.50
2018-02-25T23:08:38.993Z,11.98
2018-02-25T23:11:07.389Z,11.68
2018-02-25T23:13:36.242Z,11.70
2018-02-25T23:16:04.378Z,10.65
2018-02-25T23:18:32.671Z,12.10
2018-02-25T23:21:00.979Z,17.12
2018-02-25T23:23:29.275Z,16.23
2018-02-25T23:25:57.374Z,16.02
2018-02-25T23:31:10.576Z,13.05
2018-02-25T23:33:38.758Z,12.50
2018-02-25T23:36:06.759Z,13.35
2018-02-25T23:38:34.964Z,13.27
2018-02-25T23:41:03.498Z,9.60
2018-02-25T23:43:31.996Z,12.37
2018-02-25T23:46:00.198Z,10.85
2018-02-25T23:48:29.718Z,10.90
2018-02-25T23:50:58.121Z,10.00
2018-02-25T23:53:26.421Z,13.00
2018-02-25T23:55:54.621Z,9.20
2018-02-25T23:58:23.079Z,13.77
